sensor_id;sensor_type;location;lat;lon;timestamp;P1;durP1;ratioP1;P2;durP2;ratioP2
14474;SDS011;7323;50.848;4.334;2023-08-30T00:01:13;6.23;;;5.57;;
14474;SDS011;7323;50.848;4.334;2023-08-30T00:03:38;7.67;;;5.23;;
14474;SDS011;7323;50.848;4.334;2023-08-30T00:06:04;8.17;;;5.10;;
14474;SDS011;7323;50.848;4.334;2023-08-30T00:08:31;7.53;;;4.90;;
14474;SDS011;7323;50.848;4.334;2023-08-30T00:10:57;9.23;;;5.50;;
14474;SDS011;7323;50.848;4.334;2023-08-30T00:13:26;10.03;;;5.30;;
14474;SDS011;7323;50.848;4.334;2023-08-30T00:15:54;6.13;;;5.10;;
14474;SDS011;7323;50.848;4.334;2023-08-30T00:18:20;8.90;;;5.03;;
14474;SDS011;7323;50.848;4.334;2023-08-30T00:20:46;7.67;;;4.93;;
14474;SDS011;7323;50.848;4.334;2023-08-30T00:23:12;5.47;;;4.83;;
14474;SDS011;7323;50.848;4.334;2023-08-30T00:25:38;8.33;;;5.33;;
14474;SDS011;7323;50.848;4.334;2023-08-30T00:28:03;7.77;;;4.50;;
14474;SDS011;7323;50.848;4.334;2023-08-30T00:30:29;6.27;;;4.73;;
14474;SDS011;7323;50.848;4.334;2023-08-30T00:32:55;8.10;;;5.27;;
14474;SDS011;7323;50.848;4.334;2023-08-30T00:35:21;7.97;;;5.00;;
14474;SDS011;7323;50.848;4.334;2023-08-30T00:37:47;8.40;;;5.10;;
14474;SDS011;7323;50.848;4.334;2023-08-30T00:40:13;9.33;;;4.87;;
14474;SDS011;7323;50.848;4.334;2023-08-30T00:42:38;8.07;;;5.30;;
14474;SDS011;7323;50.848;4.334;2023-08-30T00:45:06;6.37;;;5.10;;
14474;SDS011;7323;50.848;4.334;2023-08-30T00:47:32;7.80;;;5.07;;
14474;SDS011;7323;50.848;4.334;2023-08-30T00:49:58;5.57;;;4.80;;
14474;SDS011;7323;50.848;4.334;2023-08-30T00:52:24;7.07;;;5.40;;
14474;SDS011;7323;50.848;4.334;2023-08-30T00:54:50;5.77;;;4.80;;
14474;SDS011;7323;50.848;4.334;2023-08-30T00:57:16;8.47;;;5.47;;
14474;SDS011;7323;50.848;4.334;2023-08-30T00:59:42;5.93;;;5.13;;
14474;SDS011;7323;50.848;4.334;2023-08-30T01:02:07;8.70;;;5.10;;
14474;SDS011;7323;50.848;4.334;2023-08-30T01:04:34;7.93;;;5.17;;
14474;SDS011;7323;50.848;4.334;2023-08-30T01:07:00;7.07;;;5.03;;
14474;SDS011;7323;50.848;4.334;2023-08-30T01:09:25;6.53;;;5.33;;
14474;SDS011;7323;50.848;4.334;2023-08-30T01:11:54;7.37;;;5.57;;
14474;SDS011;7323;50.848;4.334;2023-08-30T01:14:29;7.20;;;5.33;;
14474;SDS011;7323;50.848;4.334;2023-08-30T01:17:03;7.47;;;5.40;;
14474;SDS011;7323;50.848;4.334;2023-08-30T01:19:48;7.37;;;5.40;;
14474;SDS011;7323;50.848;4.334;2023-08-30T01:25:09;9.07;;;5.23;;
14474;SDS011;7323;50.848;4.334;2023-08-30T01:27:53;8.93;;;5.40;;
14474;SDS011;7323;50.848;4.334;2023-08-30T01:30:20;7.07;;;5.13;;
14474;SDS011;7323;50.848;4.334;2023-08-30T01:32:49;11.83;;;5.63;;
14474;SDS011;7323;50.848;4.334;2023-08-30T01:35:15;7.37;;;5.23;;
14474;SDS011;7323;50.848;4.334;2023-08-30T01:37:44;6.67;;;4.77;;
14474;SDS011;7323;50.848;4.334;2023-08-30T01:40:11;8.37;;;5.57;;
14474;SDS011;7323;50.848;4.334;2023-08-30T01:42:40;8.40;;;5.43;;
14474;SDS011;7323;50.848;4.334;2023-08-30T01:45:08;10.80;;;5.87;;
14474;SDS011;7323;50.848;4.334;2023-08-30T01:47:38;7.93;;;5.97;;
14474;SDS011;7323;50.848;4.334;2023-08-30T01:50:06;11.23;;;6.10;;
14474;SDS011;7323;50.848;4.334;2023-08-30T01:52:32;7.87;;;5.90;;
14474;SDS011;7323;50.848;4.334;2023-08-30T01:54:58;9.27;;;5.70;;
14474;SDS011;7323;50.848;4.334;2023-08-30T01:57:27;9.17;;;5.77;;
14474;SDS011;7323;50.848;4.334;2023-08-30T01:59:53;7.17;;;5.80;;
14474;SDS011;7323;50.848;4.334;2023-08-30T02:02:19;9.40;;;6.50;;
14474;SDS011;7323;50.848;4.334;2023-08-30T02:04:44;8.13;;;6.00;;
14474;SDS011;7323;50.848;4.334;2023-08-30T02:07:13;8.90;;;5.37;;
14474;SDS011;7323;50.848;4.334;2023-08-30T02:12:22;8.77;;;6.23;;
14474;SDS011;7323;50.848;4.334;2023-08-30T02:14:52;10.40;;;5.40;;
14474;SDS011;7323;50.848;4.334;2023-08-30T02:17:19;8.20;;;5.80;;
14474;SDS011;7323;50.848;4.334;2023-08-30T02:19:44;8.53;;;6.33;;
14474;SDS011;7323;50.848;4.334;2023-08-30T02:22:11;8.93;;;5.67;;
14474;SDS011;7323;50.848;4.334;2023-08-30T02:24:37;7.63;;;5.90;;
14474;SDS011;7323;50.848;4.334;2023-08-30T02:27:03;10.20;;;5.80;;
14474;SDS011;7323;50.848;4.334;2023-08-30T02:29:29;10.33;;;5.73;;
14474;SDS011;7323;50.848;4.334;2023-08-30T02:31:55;8.13;;;5.60;;
14474;SDS011;7323;50.848;4.334;2023-08-30T02:34:20;7.40;;;5.93;;
14474;SDS011;7323;50.848;4.334;2023-08-30T02:36:46;8.20;;;5.30;;
14474;SDS011;7323;50.848;4.334;2023-08-30T02:39:13;10.63;;;6.33;;
14474;SDS011;7323;50.848;4.334;2023-08-30T02:41:40;9.20;;;5.67;;
14474;SDS011;7323;50.848;4.334;2023-08-30T02:44:10;7.30;;;5.60;;
14474;SDS011;7323;50.848;4.334;2023-08-30T02:46:36;10.97;;;5.33;;
14474;SDS011;7323;50.848;4.334;2023-08-30T02:49:21;6.50;;;5.00;;
14474;SDS011;7323;50.848;4.334;2023-08-30T02:51:46;8.73;;;4.93;;
14474;SDS011;7323;50.848;4.334;2023-08-30T02:54:13;9.97;;;5.53;;
14474;SDS011;7323;50.848;4.334;2023-08-30T02:56:39;8.10;;;4.77;;
14474;SDS011;7323;50.848;4.334;2023-08-30T02:59:07;7.50;;;4.97;;
14474;SDS011;7323;50.848;4.334;2023-08-30T03:01:34;9.83;;;5.07;;
14474;SDS011;7323;50.848;4.334;2023-08-30T03:04:00;8.60;;;5.10;;
14474;SDS011;7323;50.848;4.334;2023-08-30T03:06:26;8.83;;;5.67;;
14474;SDS011;7323;50.848;4.334;2023-08-30T03:08:53;8.40;;;5.20;;
14474;SDS011;7323;50.848;4.334;2023-08-30T03:11:19;9.33;;;6.43;;
14474;SDS011;7323;50.848;4.334;2023-08-30T03:13:46;8.83;;;5.87;;
14474;SDS011;7323;50.848;4.334;2023-08-30T03:22:03;8.50;;;6.00;;
14474;SDS011;7323;50.848;4.334;2023-08-30T03:27:51;10.50;;;6.20;;
14474;SDS011;7323;50.848;4.334;2023-08-30T03:30:16;8.17;;;6.43;;
14474;SDS011;7323;50.848;4.334;2023-08-30T03:32:42;9.73;;;6.80;;
14474;SDS011;7323;50.848;4.334;2023-08-30T03:35:08;9.83;;;6.77;;
14474;SDS011;7323;50.848;4.334;2023-08-30T03:37:33;10.67;;;6.83;;
14474;SDS011;7323;50.848;4.334;2023-08-30T03:39:59;11.57;;;6.57;;
14474;SDS011;7323;50.848;4.334;2023-08-30T03:42:25;10.13;;;6.73;;
14474;SDS011;7323;50.848;4.334;2023-08-30T03:44:50;10.03;;;6.57;;
14474;SDS011;7323;50.848;4.334;2023-08-30T03:47:16;10.13;;;5.83;;
14474;SDS011;7323;50.848;4.334;2023-08-30T03:49:43;9.03;;;6.00;;
14474;SDS011;7323;50.848;4.334;2023-08-30T03:52:09;13.73;;;6.37;;
14474;SDS011;7323;50.848;4.334;2023-08-30T03:54:35;9.07;;;5.80;;
14474;SDS011;7323;50.848;4.334;2023-08-30T03:57:01;10.17;;;6.23;;
14474;SDS011;7323;50.848;4.334;2023-08-30T03:59:28;10.67;;;6.33;;
14474;SDS011;7323;50.848;4.334;2023-08-30T04:01:53;8.40;;;6.03;;
14474;SDS011;7323;50.848;4.334;2023-08-30T04:04:19;9.13;;;6.33;;
14474;SDS011;7323;50.848;4.334;2023-08-30T04:06:45;12.03;;;6.37;;
14474;SDS011;7323;50.848;4.334;2023-08-30T04:09:11;8.10;;;5.67;;
14474;SDS011;7323;50.848;4.334;2023-08-30T04:11:36;10.03;;;6.20;;
14474;SDS011;7323;50.848;4.334;2023-08-30T04:14:02;10.00;;;5.87;;
14474;SDS011;7323;50.848;4.334;2023-08-30T04:16:28;10.67;;;5.90;;
14474;SDS011;7323;50.848;4.334;2023-08-30T04:18:53;9.27;;;6.50;;
14474;SDS011;7323;50.848;4.334;2023-08-30T04:21:19;9.60;;;6.13;;
14474;SDS011;7323;50.848;4.334;2023-08-30T04:23:45;12.70;;;6.13;;
14474;SDS011;7323;50.848;4.334;2023-08-30T04:26:10;8.07;;;6.07;;
14474;SDS011;7323;50.848;4.334;2023-08-30T04:28:36;8.80;;;5.90;;
14474;SDS011;7323;50.848;4.334;2023-08-30T04:31:02;9.80;;;5.40;;
14474;SDS011;7323;50.848;4.334;2023-08-30T04:33:27;9.63;;;6.10;;
14474;SDS011;7323;50.848;4.334;2023-08-30T04:35:53;8.33;;;5.60;;
14474;SDS011;7323;50.848;4.334;2023-08-30T04:38:20;9.00;;;6.00;;
14474;SDS011;7323;50.848;4.334;2023-08-30T04:40:46;10.13;;;6.57;;
14474;SDS011;7323;50.848;4.334;2023-08-30T04:43:12;10.60;;;6.37;;
14474;SDS011;7323;50.848;4.334;2023-08-30T04:45:38;9.87;;;6.23;;
14474;SDS011;7323;50.848;4.334;2023-08-30T04:48:04;7.90;;;5.47;;
14474;SDS011;7323;50.848;4.334;2023-08-30T04:50:30;8.93;;;6.37;;
14474;SDS011;7323;50.848;4.334;2023-08-30T04:52:58;9.93;;;7.00;;
14474;SDS011;7323;50.848;4.334;2023-08-30T04:55:24;13.17;;;7.33;;
14474;SDS011;7323;50.848;4.334;2023-08-30T04:57:50;11.20;;;6.80;;
14474;SDS011;7323;50.848;4.334;2023-08-30T05:00:16;11.20;;;6.40;;
14474;SDS011;7323;50.848;4.334;2023-08-30T05:02:42;10.97;;;6.33;;
14474;SDS011;7323;50.848;4.334;2023-08-30T05:05:11;10.63;;;6.50;;
14474;SDS011;7323;50.848;4.334;2023-08-30T05:07:37;8.97;;;6.60;;
14474;SDS011;7323;50.848;4.334;2023-08-30T05:10:03;11.37;;;6.83;;
14474;SDS011;7323;50.848;4.334;2023-08-30T05:12:35;12.07;;;7.40;;
14474;SDS011;7323;50.848;4.334;2023-08-30T05:15:02;10.87;;;7.57;;
14474;SDS011;7323;50.848;4.334;2023-08-30T05:17:29;9.47;;;6.93;;
14474;SDS011;7323;50.848;4.334;2023-08-30T05:19:54;10.53;;;6.80;;
14474;SDS011;7323;50.848;4.334;2023-08-30T05:22:20;12.07;;;8.40;;
14474;SDS011;7323;50.848;4.334;2023-08-30T05:24:46;14.60;;;9.50;;
14474;SDS011;7323;50.848;4.334;2023-08-30T05:27:12;16.40;;;10.40;;
14474;SDS011;7323;50.848;4.334;2023-08-30T05:29:39;17.30;;;11.00;;
14474;SDS011;7323;50.848;4.334;2023-08-30T05:32:05;14.90;;;9.97;;
14474;SDS011;7323;50.848;4.334;2023-08-30T05:34:31;13.27;;;9.43;;
14474;SDS011;7323;50.848;4.334;2023-08-30T05:36:57;11.53;;;8.83;;
14474;SDS011;7323;50.848;4.334;2023-08-30T05:39:22;10.70;;;7.67;;
14474;SDS011;7323;50.848;4.334;2023-08-30T05:41:48;9.77;;;7.20;;
14474;SDS011;7323;50.848;4.334;2023-08-30T05:44:14;9.83;;;7.40;;
14474;SDS011;7323;50.848;4.334;2023-08-30T05:46:39;8.60;;;7.00;;
14474;SDS011;7323;50.848;4.334;2023-08-30T05:49:06;14.30;;;7.97;;
14474;SDS011;7323;50.848;4.334;2023-08-30T05:51:32;8.87;;;6.67;;
14474;SDS011;7323;50.848;4.334;2023-08-30T05:53:57;9.40;;;6.83;;
14474;SDS011;7323;50.848;4.334;2023-08-30T05:56:23;9.00;;;6.73;;
14474;SDS011;7323;50.848;4.334;2023-08-30T05:58:49;7.50;;;6.00;;
14474;SDS011;7323;50.848;4.334;2023-08-30T06:01:17;8.03;;;6.20;;
14474;SDS011;7323;50.848;4.334;2023-08-30T06:03:43;7.20;;;6.27;;
14474;SDS011;7323;50.848;4.334;2023-08-30T06:06:10;6.97;;;5.97;;
14474;SDS011;7323;50.848;4.334;2023-08-30T06:08:36;7.27;;;5.90;;
14474;SDS011;7323;50.848;4.334;2023-08-30T06:11:02;7.43;;;5.97;;
14474;SDS011;7323;50.848;4.334;2023-08-30T06:13:27;7.13;;;5.30;;
14474;SDS011;7323;50.848;4.334;2023-08-30T06:15:54;9.27;;;5.70;;
14474;SDS011;7323;50.848;4.334;2023-08-30T06:18:20;8.57;;;5.40;;
14474;SDS011;7323;50.848;4.334;2023-08-30T06:20:46;8.97;;;5.30;;
14474;SDS011;7323;50.848;4.334;2023-08-30T06:23:12;7.97;;;5.60;;
14474;SDS011;7323;50.848;4.334;2023-08-30T06:25:39;9.00;;;6.17;;
14474;SDS011;7323;50.848;4.334;2023-08-30T06:28:05;7.77;;;6.43;;
14474;SDS011;7323;50.848;4.334;2023-08-30T06:30:31;7.80;;;5.87;;
14474;SDS011;7323;50.848;4.334;2023-08-30T06:32:56;6.93;;;6.20;;
14474;SDS011;7323;50.848;4.334;2023-08-30T06:35:23;8.13;;;6.30;;
14474;SDS011;7323;50.848;4.334;2023-08-30T06:37:49;8.73;;;6.40;;
14474;SDS011;7323;50.848;4.334;2023-08-30T06:40:15;8.23;;;6.90;;
14474;SDS011;7323;50.848;4.334;2023-08-30T06:42:41;8.53;;;6.73;;
14474;SDS011;7323;50.848;4.334;2023-08-30T06:45:07;8.80;;;7.90;;
14474;SDS011;7323;50.848;4.334;2023-08-30T06:47:33;11.10;;;7.70;;
14474;SDS011;7323;50.848;4.334;2023-08-30T06:50:00;9.10;;;7.73;;
14474;SDS011;7323;50.848;4.334;2023-08-30T06:52:26;9.27;;;7.57;;
14474;SDS011;7323;50.848;4.334;2023-08-30T06:54:52;9.80;;;7.80;;
14474;SDS011;7323;50.848;4.334;2023-08-30T06:57:22;12.63;;;8.17;;
14474;SDS011;7323;50.848;4.334;2023-08-30T06:59:50;9.20;;;7.23;;
14474;SDS011;7323;50.848;4.334;2023-08-30T07:02:34;10.57;;;8.00;;
14474;SDS011;7323;50.848;4.334;2023-08-30T07:05:02;11.23;;;7.57;;
14474;SDS011;7323;50.848;4.334;2023-08-30T07:07:30;11.57;;;8.93;;
14474;SDS011;7323;50.848;4.334;2023-08-30T07:09:56;9.37;;;6.97;;
14474;SDS011;7323;50.848;4.334;2023-08-30T07:12:22;8.93;;;6.37;;
14474;SDS011;7323;50.848;4.334;2023-08-30T07:14:49;8.77;;;6.87;;
14474;SDS011;7323;50.848;4.334;2023-08-30T07:17:15;10.90;;;8.13;;
14474;SDS011;7323;50.848;4.334;2023-08-30T07:19:44;10.40;;;7.40;;
14474;SDS011;7323;50.848;4.334;2023-08-30T07:22:10;9.20;;;7.33;;
14474;SDS011;7323;50.848;4.334;2023-08-30T07:24:36;11.00;;;7.53;;
14474;SDS011;7323;50.848;4.334;2023-08-30T07:27:02;9.60;;;6.97;;
14474;SDS011;7323;50.848;4.334;2023-08-30T07:29:28;7.57;;;6.43;;
14474;SDS011;7323;50.848;4.334;2023-08-30T07:31:53;10.27;;;7.50;;
14474;SDS011;7323;50.848;4.334;2023-08-30T07:34:21;9.10;;;6.90;;
14474;SDS011;7323;50.848;4.334;2023-08-30T07:36:49;8.00;;;6.63;;
14474;SDS011;7323;50.848;4.334;2023-08-30T07:39:16;8.60;;;6.97;;
14474;SDS011;7323;50.848;4.334;2023-08-30T07:41:41;10.30;;;7.10;;
14474;SDS011;7323;50.848;4.334;2023-08-30T07:44:07;7.97;;;6.80;;
14474;SDS011;7323;50.848;4.334;2023-08-30T07:46:33;8.67;;;6.50;;
14474;SDS011;7323;50.848;4.334;2023-08-30T07:48:59;8.87;;;7.23;;
14474;SDS011;7323;50.848;4.334;2023-08-30T07:51:25;8.63;;;6.63;;
14474;SDS011;7323;50.848;4.334;2023-08-30T07:53:50;7.83;;;6.50;;
14474;SDS011;7323;50.848;4.334;2023-08-30T07:56:16;9.03;;;6.97;;
14474;SDS011;7323;50.848;4.334;2023-08-30T07:58:42;8.80;;;5.97;;
14474;SDS011;7323;50.848;4.334;2023-08-30T08:03:36;8.10;;;5.80;;
14474;SDS011;7323;50.848;4.334;2023-08-30T08:06:03;9.17;;;6.37;;
14474;SDS011;7323;50.848;4.334;2023-08-30T08:08:28;7.93;;;6.03;;
14474;SDS011;7323;50.848;4.334;2023-08-30T08:10:55;8.27;;;6.03;;
14474;SDS011;7323;50.848;4.334;2023-08-30T08:13:21;9.03;;;6.10;;
14474;SDS011;7323;50.848;4.334;2023-08-30T08:15:47;10.67;;;6.00;;
14474;SDS011;7323;50.848;4.334;2023-08-30T08:18:12;9.73;;;5.90;;
14474;SDS011;7323;50.848;4.334;2023-08-30T08:20:38;9.50;;;6.30;;
14474;SDS011;7323;50.848;4.334;2023-08-30T08:23:04;9.80;;;6.73;;
14474;SDS011;7323;50.848;4.334;2023-08-30T08:25:30;7.50;;;5.43;;
14474;SDS011;7323;50.848;4.334;2023-08-30T08:27:55;6.30;;;4.93;;
14474;SDS011;7323;50.848;4.334;2023-08-30T08:30:21;6.70;;;4.90;;
14474;SDS011;7323;50.848;4.334;2023-08-30T08:32:47;5.90;;;4.60;;
14474;SDS011;7323;50.848;4.334;2023-08-30T08:35:13;6.70;;;4.73;;
14474;SDS011;7323;50.848;4.334;2023-08-30T08:37:39;6.13;;;4.93;;
14474;SDS011;7323;50.848;4.334;2023-08-30T08:40:05;7.03;;;5.17;;
14474;SDS011;7323;50.848;4.334;2023-08-30T08:42:35;7.13;;;4.03;;
14474;SDS011;7323;50.848;4.334;2023-08-30T08:45:04;6.57;;;4.20;;
14474;SDS011;7323;50.848;4.334;2023-08-30T08:47:31;6.37;;;4.97;;
14474;SDS011;7323;50.848;4.334;2023-08-30T08:49:57;6.17;;;4.07;;
14474;SDS011;7323;50.848;4.334;2023-08-30T08:52:28;7.50;;;4.00;;
14474;SDS011;7323;50.848;4.334;2023-08-30T08:54:54;8.53;;;4.70;;
14474;SDS011;7323;50.848;4.334;2023-08-30T08:57:20;5.53;;;3.70;;
14474;SDS011;7323;50.848;4.334;2023-08-30T08:59:46;6.20;;;4.27;;
14474;SDS011;7323;50.848;4.334;2023-08-30T09:02:13;4.30;;;3.80;;
14474;SDS011;7323;50.848;4.334;2023-08-30T09:04:39;5.70;;;4.33;;
14474;SDS011;7323;50.848;4.334;2023-08-30T09:07:05;4.67;;;3.90;;
14474;SDS011;7323;50.848;4.334;2023-08-30T09:09:32;4.53;;;3.83;;
14474;SDS011;7323;50.848;4.334;2023-08-30T09:11:58;5.20;;;4.33;;
14474;SDS011;7323;50.848;4.334;2023-08-30T09:14:24;5.90;;;4.43;;
14474;SDS011;7323;50.848;4.334;2023-08-30T09:17:00;7.80;;;4.63;;
14474;SDS011;7323;50.848;4.334;2023-08-30T09:19:27;7.93;;;5.00;;
14474;SDS011;7323;50.848;4.334;2023-08-30T09:21:56;5.83;;;5.23;;
14474;SDS011;7323;50.848;4.334;2023-08-30T09:24:23;7.10;;;5.83;;
14474;SDS011;7323;50.848;4.334;2023-08-30T09:26:50;6.90;;;6.00;;
14474;SDS011;7323;50.848;4.334;2023-08-30T09:29:17;6.97;;;6.17;;
14474;SDS011;7323;50.848;4.334;2023-08-30T09:31:44;7.43;;;6.47;;
14474;SDS011;7323;50.848;4.334;2023-08-30T09:34:10;7.43;;;6.67;;
14474;SDS011;7323;50.848;4.334;2023-08-30T09:36:37;7.40;;;6.70;;
14474;SDS011;7323;50.848;4.334;2023-08-30T09:39:09;8.63;;;7.20;;
14474;SDS011;7323;50.848;4.334;2023-08-30T09:41:36;7.93;;;7.13;;
14474;SDS011;7323;50.848;4.334;2023-08-30T09:44:09;8.70;;;6.90;;
14474;SDS011;7323;50.848;4.334;2023-08-30T09:49:12;7.73;;;6.93;;
14474;SDS011;7323;50.848;4.334;2023-08-30T09:51:41;7.93;;;6.60;;
14474;SDS011;7323;50.848;4.334;2023-08-30T09:54:14;8.93;;;6.83;;
14474;SDS011;7323;50.848;4.334;2023-08-30T09:56:43;8.07;;;6.60;;
14474;SDS011;7323;50.848;4.334;2023-08-30T09:59:11;9.07;;;6.87;;
14474;SDS011;7323;50.848;4.334;2023-08-30T10:01:39;8.90;;;7.30;;
14474;SDS011;7323;50.848;4.334;2023-08-30T10:04:05;8.67;;;7.33;;
14474;SDS011;7323;50.848;4.334;2023-08-30T10:06:33;7.87;;;7.07;;
14474;SDS011;7323;50.848;4.334;2023-08-30T10:09:05;8.60;;;7.70;;
14474;SDS011;7323;50.848;4.334;2023-08-30T10:11:36;7.90;;;7.10;;
14474;SDS011;7323;50.848;4.334;2023-08-30T10:14:03;8.87;;;7.80;;
14474;SDS011;7323;50.848;4.334;2023-08-30T10:16:30;11.17;;;7.47;;
14474;SDS011;7323;50.848;4.334;2023-08-30T10:19:24;8.80;;;7.77;;
14474;SDS011;7323;50.848;4.334;2023-08-30T10:22:10;8.70;;;7.80;;
14474;SDS011;7323;50.848;4.334;2023-08-30T10:24:46;9.20;;;8.07;;
14474;SDS011;7323;50.848;4.334;2023-08-30T10:27:16;8.30;;;7.50;;
14474;SDS011;7323;50.848;4.334;2023-08-30T10:29:43;9.57;;;7.60;;
14474;SDS011;7323;50.848;4.334;2023-08-30T10:32:10;11.73;;;9.03;;
14474;SDS011;7323;50.848;4.334;2023-08-30T10:37:12;8.53;;;7.70;;
14474;SDS011;7323;50.848;4.334;2023-08-30T10:39:40;8.53;;;7.23;;
14474;SDS011;7323;50.848;4.334;2023-08-30T10:42:10;7.77;;;6.90;;
14474;SDS011;7323;50.848;4.334;2023-08-30T10:44:47;7.90;;;7.10;;
14474;SDS011;7323;50.848;4.334;2023-08-30T10:49:53;13.47;;;7.77;;
14474;SDS011;7323;50.848;4.334;2023-08-30T10:52:20;11.50;;;8.43;;
14474;SDS011;7323;50.848;4.334;2023-08-30T10:54:46;8.13;;;6.90;;
14474;SDS011;7323;50.848;4.334;2023-08-30T10:57:12;9.00;;;7.37;;
14474;SDS011;7323;50.848;4.334;2023-08-30T10:59:39;7.80;;;7.00;;
14474;SDS011;7323;50.848;4.334;2023-08-30T11:02:06;7.23;;;6.40;;
14474;SDS011;7323;50.848;4.334;2023-08-30T11:04:32;9.73;;;7.57;;
14474;SDS011;7323;50.848;4.334;2023-08-30T11:06:58;9.67;;;7.93;;
14474;SDS011;7323;50.848;4.334;2023-08-30T11:09:24;9.07;;;6.80;;
14474;SDS011;7323;50.848;4.334;2023-08-30T11:11:50;8.07;;;7.20;;
14474;SDS011;7323;50.848;4.334;2023-08-30T11:14:17;8.03;;;6.90;;
14474;SDS011;7323;50.848;4.334;2023-08-30T11:16:43;7.90;;;6.73;;
14474;SDS011;7323;50.848;4.334;2023-08-30T11:19:10;9.50;;;6.90;;
14474;SDS011;7323;50.848;4.334;2023-08-30T11:21:37;7.73;;;6.63;;
14474;SDS011;7323;50.848;4.334;2023-08-30T11:24:05;9.27;;;6.17;;
14474;SDS011;7323;50.848;4.334;2023-08-30T11:26:33;8.27;;;5.73;;
14474;SDS011;7323;50.848;4.334;2023-08-30T11:29:06;8.73;;;5.83;;
14474;SDS011;7323;50.848;4.334;2023-08-30T11:31:32;8.97;;;6.00;;
14474;SDS011;7323;50.848;4.334;2023-08-30T11:33:59;7.70;;;3.87;;
14474;SDS011;7323;50.848;4.334;2023-08-30T11:36:29;5.50;;;3.27;;
14474;SDS011;7323;50.848;4.334;2023-08-30T11:38:56;7.67;;;3.70;;
14474;SDS011;7323;50.848;4.334;2023-08-30T11:41:25;7.37;;;2.97;;
14474;SDS011;7323;50.848;4.334;2023-08-30T11:43:52;11.37;;;3.27;;
14474;SDS011;7323;50.848;4.334;2023-08-30T11:46:23;6.80;;;2.80;;
14474;SDS011;7323;50.848;4.334;2023-08-30T11:48:50;9.27;;;2.90;;
14474;SDS011;7323;50.848;4.334;2023-08-30T11:51:20;5.50;;;3.07;;
14474;SDS011;7323;50.848;4.334;2023-08-30T11:53:47;9.23;;;3.30;;
14474;SDS011;7323;50.848;4.334;2023-08-30T11:56:13;9.67;;;3.83;;
14474;SDS011;7323;50.848;4.334;2023-08-30T11:58:39;7.60;;;2.67;;
14474;SDS011;7323;50.848;4.334;2023-08-30T12:01:04;6.30;;;3.20;;
14474;SDS011;7323;50.848;4.334;2023-08-30T12:03:32;9.63;;;2.60;;
14474;SDS011;7323;50.848;4.334;2023-08-30T12:05:58;5.07;;;2.40;;
14474;SDS011;7323;50.848;4.334;2023-08-30T12:08:28;6.80;;;2.40;;
14474;SDS011;7323;50.848;4.334;2023-08-30T12:10:56;7.33;;;2.63;;
14474;SDS011;7323;50.848;4.334;2023-08-30T12:13:27;9.27;;;2.43;;
14474;SDS011;7323;50.848;4.334;2023-08-30T12:16:01;8.53;;;2.73;;
14474;SDS011;7323;50.848;4.334;2023-08-30T12:21:21;8.93;;;2.37;;
14474;SDS011;7323;50.848;4.334;2023-08-30T12:23:47;8.77;;;2.53;;
14474;SDS011;7323;50.848;4.334;2023-08-30T12:26:12;10.37;;;2.80;;
14474;SDS011;7323;50.848;4.334;2023-08-30T12:28:39;7.63;;;2.50;;
14474;SDS011;7323;50.848;4.334;2023-08-30T12:31:06;7.23;;;2.30;;
14474;SDS011;7323;50.848;4.334;2023-08-30T12:33:33;9.27;;;2.63;;
14474;SDS011;7323;50.848;4.334;2023-08-30T12:35:59;7.63;;;2.97;;
14474;SDS011;7323;50.848;4.334;2023-08-30T12:38:28;4.97;;;2.10;;
14474;SDS011;7323;50.848;4.334;2023-08-30T12:40:55;9.27;;;2.50;;
14474;SDS011;7323;50.848;4.334;2023-08-30T12:43:21;7.97;;;2.73;;
14474;SDS011;7323;50.848;4.334;2023-08-30T12:45:48;6.90;;;2.37;;
14474;SDS011;7323;50.848;4.334;2023-08-30T12:48:15;5.73;;;2.23;;
14474;SDS011;7323;50.848;4.334;2023-08-30T12:50:46;6.40;;;2.20;;
14474;SDS011;7323;50.848;4.334;2023-08-30T12:53:13;8.67;;;2.27;;
14474;SDS011;7323;50.848;4.334;2023-08-30T12:55:41;6.87;;;2.20;;
14474;SDS011;7323;50.848;4.334;2023-08-30T12:58:08;6.20;;;2.40;;
14474;SDS011;7323;50.848;4.334;2023-08-30T13:00:34;6.73;;;2.07;;
14474;SDS011;7323;50.848;4.334;2023-08-30T13:03:00;7.83;;;2.20;;
14474;SDS011;7323;50.848;4.334;2023-08-30T13:05:28;5.13;;;1.90;;
14474;SDS011;7323;50.848;4.334;2023-08-30T13:07:55;5.40;;;2.13;;
14474;SDS011;7323;50.848;4.334;2023-08-30T13:10:21;6.03;;;2.47;;
14474;SDS011;7323;50.848;4.334;2023-08-30T13:12:47;7.63;;;2.40;;
14474;SDS011;7323;50.848;4.334;2023-08-30T13:15:12;5.07;;;2.27;;
14474;SDS011;7323;50.848;4.334;2023-08-30T13:17:38;5.20;;;1.90;;
14474;SDS011;7323;50.848;4.334;2023-08-30T13:20:04;4.90;;;1.80;;
14474;SDS011;7323;50.848;4.334;2023-08-30T13:22:30;8.00;;;1.77;;
14474;SDS011;7323;50.848;4.334;2023-08-30T13:24:55;4.97;;;1.60;;
14474;SDS011;7323;50.848;4.334;2023-08-30T13:27:21;4.77;;;1.57;;
14474;SDS011;7323;50.848;4.334;2023-08-30T13:29:47;6.67;;;2.20;;
14474;SDS011;7323;50.848;4.334;2023-08-30T13:32:13;4.73;;;1.40;;
14474;SDS011;7323;50.848;4.334;2023-08-30T13:34:39;3.50;;;1.50;;
14474;SDS011;7323;50.848;4.334;2023-08-30T13:37:05;3.30;;;1.50;;
14474;SDS011;7323;50.848;4.334;2023-08-30T13:39:31;6.60;;;2.13;;
14474;SDS011;7323;50.848;4.334;2023-08-30T13:41:57;6.67;;;1.80;;
14474;SDS011;7323;50.848;4.334;2023-08-30T13:44:23;7.47;;;1.70;;
14474;SDS011;7323;50.848;4.334;2023-08-30T13:46:49;5.27;;;1.70;;
14474;SDS011;7323;50.848;4.334;2023-08-30T13:49:15;4.20;;;1.83;;
14474;SDS011;7323;50.848;4.334;2023-08-30T13:51:43;6.33;;;2.17;;
14474;SDS011;7323;50.848;4.334;2023-08-30T13:54:10;4.53;;;2.07;;
14474;SDS011;7323;50.848;4.334;2023-08-30T13:56:37;5.97;;;2.20;;
14474;SDS011;7323;50.848;4.334;2023-08-30T13:59:06;5.83;;;1.83;;
14474;SDS011;7323;50.848;4.334;2023-08-30T14:01:32;6.43;;;2.30;;
14474;SDS011;7323;50.848;4.334;2023-08-30T14:03:58;5.60;;;1.80;;
14474;SDS011;7323;50.848;4.334;2023-08-30T14:06:23;5.87;;;1.90;;
14474;SDS011;7323;50.848;4.334;2023-08-30T14:08:49;6.53;;;1.90;;
14474;SDS011;7323;50.848;4.334;2023-08-30T14:11:15;5.83;;;1.77;;
14474;SDS011;7323;50.848;4.334;2023-08-30T14:13:41;6.50;;;2.40;;
14474;SDS011;7323;50.848;4.334;2023-08-30T14:16:06;8.33;;;2.00;;
14474;SDS011;7323;50.848;4.334;2023-08-30T14:18:33;6.30;;;1.70;;
14474;SDS011;7323;50.848;4.334;2023-08-30T14:20:59;5.43;;;1.50;;
14474;SDS011;7323;50.848;4.334;2023-08-30T14:23:25;4.33;;;1.70;;
14474;SDS011;7323;50.848;4.334;2023-08-30T14:26:04;6.23;;;1.67;;
14474;SDS011;7323;50.848;4.334;2023-08-30T14:28:34;6.20;;;2.40;;
14474;SDS011;7323;50.848;4.334;2023-08-30T14:31:01;6.17;;;1.80;;
14474;SDS011;7323;50.848;4.334;2023-08-30T14:33:27;7.23;;;2.07;;
14474;SDS011;7323;50.848;4.334;2023-08-30T14:35:53;5.30;;;1.70;;
14474;SDS011;7323;50.848;4.334;2023-08-30T14:38:19;6.13;;;1.70;;
14474;SDS011;7323;50.848;4.334;2023-08-30T14:40:54;5.90;;;1.70;;
14474;SDS011;7323;50.848;4.334;2023-08-30T14:43:23;3.57;;;1.53;;
14474;SDS011;7323;50.848;4.334;2023-08-30T14:45:49;6.17;;;2.00;;
14474;SDS011;7323;50.848;4.334;2023-08-30T14:48:15;3.53;;;1.50;;
14474;SDS011;7323;50.848;4.334;2023-08-30T14:50:40;4.17;;;1.43;;
14474;SDS011;7323;50.848;4.334;2023-08-30T14:53:06;4.83;;;1.50;;
14474;SDS011;7323;50.848;4.334;2023-08-30T14:55:32;3.53;;;1.63;;
14474;SDS011;7323;50.848;4.334;2023-08-30T14:57:58;5.07;;;1.70;;
14474;SDS011;7323;50.848;4.334;2023-08-30T15:00:24;5.73;;;1.60;;
14474;SDS011;7323;50.848;4.334;2023-08-30T15:02:51;5.20;;;1.73;;
14474;SDS011;7323;50.848;4.334;2023-08-30T15:05:17;6.53;;;2.50;;
14474;SDS011;7323;50.848;4.334;2023-08-30T15:07:43;5.23;;;1.60;;
14474;SDS011;7323;50.848;4.334;2023-08-30T15:10:09;5.23;;;1.70;;
14474;SDS011;7323;50.848;4.334;2023-08-30T15:12:35;5.97;;;1.80;;
14474;SDS011;7323;50.848;4.334;2023-08-30T15:15:02;7.23;;;2.30;;
14474;SDS011;7323;50.848;4.334;2023-08-30T15:17:28;6.17;;;1.70;;
14474;SDS011;7323;50.848;4.334;2023-08-30T15:19:54;4.33;;;1.47;;
14474;SDS011;7323;50.848;4.334;2023-08-30T15:22:19;5.87;;;2.20;;
14474;SDS011;7323;50.848;4.334;2023-08-30T15:24:45;6.37;;;1.80;;
14474;SDS011;7323;50.848;4.334;2023-08-30T15:27:12;5.53;;;1.60;;